createdAt,value
2023-03-26T00:02:29.819Z,95911.72
2023-03-26T00:05:03.088Z,95921.31
2023-03-26T00:07:35.819Z,95919.41
2023-03-26T00:10:10.717Z,95901.78
2023-03-26T00:12:43.749Z,95911.78
2023-03-26T00:15:16.755Z,95898.78
2023-03-26T00:17:49.499Z,95897.66
2023-03-26T00:20:22.399Z,95894.56
2023-03-26T00:22:55.440Z,95900.34
2023-03-26T00:25:29.479Z,95888.09
2023-03-26T00:28:03.856Z,95883.06
2023-03-26T00:30:36.904Z,95886.53
2023-03-26T00:33:11.907Z,95888.41
2023-03-26T00:35:47.071Z,95889.53
2023-03-26T00:38:19.764Z,95891.88
2023-03-26T00:40:54.092Z,95888.41
2023-03-26T00:43:26.790Z,95890.75
2023-03-26T00:45:59.645Z,95888.09
2023-03-26T00:48:44.375Z,95878.16
2023-03-26T00:51:18.592Z,95888.50
2023-03-26T00:53:51.759Z,95879.34
2023-03-26T00:56:26.006Z,95877.78
2023-03-26T00:59:00.244Z,95883.16
2023-03-26T01:01:33.156Z,95879.34
2023-03-26T01:04:28.222Z,95871.34
2023-03-26T01:07:04.175Z,95860.97
2023-03-26T01:09:42.694Z,95859.84
2023-03-26T01:12:18.717Z,95856.41
2023-03-26T01:14:52.150Z,95860.97
2023-03-26T01:17:25.115Z,95860.97
2023-03-26T01:20:06.041Z,95852.94
2023-03-26T01:22:39.905Z,95852.94
2023-03-26T01:25:14.429Z,95840.72
2023-03-26T01:27:50.032Z,95837.31
2023-03-26T01:30:26.552Z,95828.97
2023-03-26T01:33:03.500Z,95832.41
2023-03-26T01:35:43.588Z,95826.72
2023-03-26T01:38:24.591Z,95821.03
2023-03-26T01:41:01.836Z,95813.78
2023-03-26T01:43:37.595Z,95806.09
2023-03-26T01:46:12.455Z,95804.53
2023-03-26T01:48:46.459Z,95791.84
2023-03-26T01:51:27.769Z,95781.13
2023-03-26T01:54:00.876Z,95782.97
2023-03-26T01:56:39.106Z,95780.97
2023-03-26T01:59:18.888Z,95775.94
2023-03-26T02:01:54.899Z,95778.19
2023-03-26T02:04:32.588Z,95765.97
2023-03-26T02:07:09.306Z,95756.72
2023-03-26T02:09:46.098Z,95751.69
2023-03-26T02:12:21.338Z,95752.03
2023-03-26T02:14:54.148Z,95740.16
2023-03-26T02:17:30.218Z,95729.78
2023-03-26T02:20:10.819Z,95720.97
2023-03-26T02:22:46.026Z,95720.97
2023-03-26T02:25:20.063Z,95713.28
2023-03-26T02:27:54.265Z,95703.72
2023-03-26T02:30:27.125Z,95708.28
2023-03-26T02:33:00.332Z,95716.31
2023-03-26T02:35:33.248Z,95694.91
2023-03-26T02:38:06.753Z,95681.22
2023-03-26T02:40:39.544Z,95679.66
2023-03-26T02:43:13.631Z,95674.28
2023-03-26T02:45:46.969Z,95671.63
2023-03-26T02:48:20.380Z,95665.94
2023-03-26T02:50:54.549Z,95650.22
2023-03-26T02:53:29.930Z,95642.22
2023-03-26T02:56:02.674Z,95642.97
2023-03-26T02:58:36.761Z,95644.19
2023-03-26T03:01:09.554Z,95631.16
2023-03-26T03:03:42.277Z,95631.59
2023-03-26T03:06:17.225Z,95620.13
2023-03-26T03:08:50.003Z,95615.97
2023-03-26T03:11:24.996Z,95607.16
2023-03-26T03:13:59.185Z,95605.28
2023-03-26T03:16:32.048Z,95609.50
2023-03-26T03:19:06.291Z,95604.16
2023-03-26T03:21:39.346Z,95601.81
2023-03-26T03:24:14.001Z,95614.06
2023-03-26T03:26:47.927Z,95616.41
2023-03-26T03:29:22.083Z,95614.06
2023-03-26T03:31:55.602Z,95612.19
2023-03-26T03:34:28.294Z,95616.41
2023-03-26T03:37:01.076Z,95610.28
2023-03-26T03:39:33.817Z,95607.25
2023-03-26T03:42:06.743Z,95609.50
2023-03-26T03:44:40.888Z,95590.44
2023-03-26T03:47:15.639Z,95596.47
2023-03-26T03:49:48.304Z,95586.53
2023-03-26T03:52:21.054Z,95585.78
2023-03-26T03:54:53.831Z,95575.44
2023-03-26T03:57:26.987Z,95574.22
2023-03-26T04:00:01.498Z,95567.66
2023-03-26T04:02:35.956Z,95574.56
2023-03-26T04:05:08.821Z,95565.72
2023-03-26T04:07:41.613Z,95558.81
2023-03-26T04:10:16.740Z,95568.59
2023-03-26T04:12:49.556Z,95569.38
2023-03-26T04:15:23.833Z,95551.34
2023-03-26T04:17:56.917Z,95551.72
2023-03-26T04:20:29.649Z,95543.25
2023-03-26T04:23:03.377Z,95534.00
2023-03-26T04:25:36.818Z,95533.25
2023-03-26T04:28:12.238Z,95525.56
2023-03-26T04:30:46.656Z,95517.13
2023-03-26T04:33:21.164Z,95509.44
2023-03-26T04:35:54.818Z,95507.56
2023-03-26T04:38:28.137Z,95504.78
2023-03-26T04:41:04.571Z,95507.03
2023-03-26T04:43:42.394Z,95498.22
2023-03-26T04:46:18.547Z,95503.25
2023-03-26T04:48:52.007Z,95501.28
2023-03-26T04:51:27.263Z,95494.03
2023-03-26T04:54:02.627Z,95487.91
2023-03-26T04:56:40.600Z,95495.16
2023-03-26T04:59:15.087Z,95483.25
2023-03-26T05:01:49.193Z,95495.50
2023-03-26T05:04:21.985Z,95483.25
2023-03-26T05:06:56.791Z,95470.66
2023-03-26T05:09:29.714Z,95463.41
2023-03-26T05:12:02.433Z,95458.06
2023-03-26T05:14:36.239Z,95458.84
2023-03-26T05:17:15.379Z,95446.59
2023-03-26T05:19:48.778Z,95450.06
2023-03-26T05:22:21.429Z,95448.94
2023-03-26T05:24:54.457Z,95439.81
2023-03-26T05:27:27.159Z,95440.19
2023-03-26T05:30:01.851Z,95437.53
2023-03-26T05:32:36.150Z,95431.50
2023-03-26T05:35:09.917Z,95426.94
2023-03-26T05:37:44.867Z,95430.38
2023-03-26T05:40:18.155Z,95413.66
2023-03-26T05:42:51.686Z,95411.72
2023-03-26T05:45:24.507Z,95417.50
2023-03-26T05:47:58.767Z,95418.28
2023-03-26T05:50:31.548Z,95426.31
2023-03-26T05:53:04.239Z,95430.97
2023-03-26T05:55:37.064Z,95430.97
2023-03-26T05:58:10.214Z,95426.38
2023-03-26T06:00:43.358Z,95414.91
2023-03-26T06:03:17.619Z,95426.38
2023-03-26T06:05:50.580Z,95421.81
2023-03-26T06:08:23.502Z,95427.16
2023-03-26T06:11:00.154Z,95416.38
2023-03-26T06:13:32.902Z,95413.72
2023-03-26T06:16:05.969Z,95407.59
2023-03-26T06:18:41.079Z,95383.09
2023-03-26T06:21:14.402Z,95370.50
2023-03-26T06:23:49.086Z,95354.84
2023-03-26T06:26:23.680Z,95334.56
2023-03-26T06:28:56.850Z,95312.06
2023-03-26T06:31:29.719Z,95329.22
2023-03-26T06:34:03.861Z,95333.44
2023-03-26T06:36:37.017Z,95337.66
2023-03-26T06:39:09.854Z,95345.75
2023-03-26T06:41:42.649Z,95344.63
2023-03-26T06:44:15.474Z,95358.78
2023-03-26T06:46:48.401Z,95360.31
2023-03-26T06:49:23.065Z,95362.28
2023-03-26T06:51:56.008Z,95369.94
2023-03-26T06:54:28.760Z,95359.25
2023-03-26T06:57:01.787Z,95379.63
2023-03-26T06:59:35.153Z,95396.47
2023-03-26T07:02:07.952Z,95401.81
2023-03-26T07:04:42.191Z,95392.28
2023-03-26T07:07:14.942Z,95370.56
2023-03-26T07:09:48.090Z,95369.78
2023-03-26T07:12:21.400Z,95368.66
2023-03-26T07:14:54.202Z,95345.72
2023-03-26T07:17:27.278Z,95342.59
2023-03-26T07:20:01.690Z,95334.19
2023-03-26T07:22:35.120Z,95327.59
2023-03-26T07:25:08.828Z,95340.88
2023-03-26T07:27:48.426Z,95355.41
2023-03-26T07:30:25.699Z,95341.19
2023-03-26T07:33:02.088Z,95333.84
2023-03-26T07:35:39.945Z,95338.03
2023-03-26T07:38:25.848Z,95332.25
2023-03-26T07:41:03.557Z,95326.13
2023-03-26T07:43:43.700Z,95315.00
2023-03-26T07:46:17.450Z,95296.97
2023-03-26T07:48:52.293Z,95298.91
2023-03-26T07:51:27.192Z,95310.34
2023-03-26T07:54:01.502Z,95305.72
2023-03-26T07:56:36.064Z,95304.94
2023-03-26T07:59:14.773Z,95290.03
2023-03-26T08:01:52.400Z,95281.25
2023-03-26T08:04:40.009Z,95279.34
2023-03-26T08:07:30.143Z,95278.56
2023-03-26T08:10:07.914Z,95272.03
2023-03-26T08:12:46.868Z,95268.22
2023-03-26T08:15:22.591Z,95270.91
2023-03-26T08:17:58.070Z,95271.31
2023-03-26T08:20:36.989Z,95260.63
2023-03-26T08:23:15.601Z,95262.63
2023-03-26T08:25:53.436Z,95263.09
2023-03-26T08:28:43.870Z,95259.72
2023-03-26T08:31:20.232Z,95262.88
2023-03-26T08:33:53.018Z,95260.69
2023-03-26T08:36:25.933Z,95259.31
2023-03-26T08:39:00.309Z,95268.22
2023-03-26T08:42:00.762Z,95264.91
2023-03-26T08:44:49.039Z,95237.84
2023-03-26T08:47:43.459Z,95244.84
2023-03-26T08:50:30.130Z,95227.66
2023-03-26T08:53:18.558Z,95238.00
2023-03-26T08:55:56.032Z,95244.91
2023-03-26T08:58:53.076Z,95245.28
2023-03-26T09:01:33.223Z,95251.84
2023-03-26T09:04:22.729Z,95249.25
2023-03-26T09:07:14.037Z,95248.22
2023-03-26T09:09:55.897Z,95248.75
2023-03-26T09:12:50.431Z,95244.34
2023-03-26T09:15:41.488Z,95267.13
2023-03-26T09:18:36.411Z,95271.88
2023-03-26T09:21:22.664Z,95307.56
2023-03-26T09:24:10.228Z,95324.50
2023-03-26T09:27:00.519Z,95330.28
2023-03-26T09:30:00.394Z,95281.31
2023-03-26T09:32:51.712Z,95277.78
2023-03-26T09:35:40.641Z,95275.06
2023-03-26T09:38:32.349Z,95306.44
2023-03-26T09:41:09.438Z,95303.00
2023-03-26T09:44:00.961Z,95305.78
2023-03-26T09:46:39.323Z,95307.50
2023-03-26T09:49:23.062Z,95327.19
2023-03-26T09:52:04.533Z,95315.91
2023-03-26T09:54:56.250Z,95326.75
2023-03-26T09:57:37.022Z,95326.47
2023-03-26T10:00:17.046Z,95330.44
2023-03-26T10:02:55.626Z,95329.41
2023-03-26T10:05:34.379Z,95312.66
2023-03-26T10:08:20.403Z,95318.88
2023-03-26T10:10:56.786Z,95315.13
2023-03-26T10:13:33.776Z,95322.13
2023-03-26T10:16:17.001Z,95316.13
2023-03-26T10:19:00.918Z,95315.13
2023-03-26T10:21:41.566Z,95314.16
2023-03-26T10:24:36.522Z,95322.03
2023-03-26T10:27:28.337Z,95334.47
2023-03-26T10:30:26.790Z,95338.44
2023-03-26T10:33:03.775Z,95325.13
2023-03-26T10:35:42.892Z,95320.19
2023-03-26T10:38:19.414Z,95320.25
2023-03-26T10:41:04.551Z,95305.72
2023-03-26T10:44:07.433Z,95300.38
2023-03-26T10:46:53.709Z,95308.13
2023-03-26T10:49:35.215Z,95295.09
2023-03-26T10:52:10.739Z,95307.47
2023-03-26T10:54:47.962Z,95303.66
2023-03-26T10:57:27.181Z,95296.75
2023-03-26T11:00:02.750Z,95306.75
2023-03-26T11:02:39.861Z,95300.63
2023-03-26T11:05:28.896Z,95296.41
2023-03-26T11:08:04.358Z,95296.41
2023-03-26T11:10:43.759Z,95292.97
2023-03-26T11:13:22.712Z,95287.97
2023-03-26T11:15:57.963Z,95292.25
2023-03-26T11:18:38.318Z,95295.31
2023-03-26T11:21:19.040Z,95298.03
2023-03-26T11:24:05.436Z,95297.66
2023-03-26T11:26:44.401Z,95294.59
2023-03-26T11:29:41.318Z,95295.38
2023-03-26T11:32:15.631Z,95271.94
2023-03-26T11:34:53.693Z,95275.00
2023-03-26T11:37:30.686Z,95273.47
2023-03-26T11:40:06.247Z,95260.78
2023-03-26T11:42:39.101Z,95255.38
2023-03-26T11:45:16.751Z,95263.44
2023-03-26T11:47:51.751Z,95264.19
2023-03-26T11:50:27.726Z,95240.28
2023-03-26T11:53:03.635Z,95261.81
2023-03-26T11:55:36.764Z,95250.97
2023-03-26T11:58:18.954Z,95236.28
2023-03-26T12:00:53.396Z,95226.25
2023-03-26T12:03:26.174Z,95230.03
2023-03-26T12:06:02.891Z,95228.09
2023-03-26T12:08:39.183Z,95226.50
2023-03-26T12:11:13.277Z,95226.44
2023-03-26T12:13:47.107Z,95209.81
2023-03-26T12:16:21.152Z,95200.16
2023-03-26T12:19:01.857Z,95193.97
2023-03-26T12:21:44.999Z,95205.53
2023-03-26T12:24:27.043Z,95198.16
2023-03-26T12:27:02.216Z,95182.72
2023-03-26T12:29:35.301Z,95176.91
2023-03-26T12:32:14.447Z,95171.47
2023-03-26T12:34:47.604Z,95176.47
2023-03-26T12:37:35.405Z,95186.56
2023-03-26T12:40:16.079Z,95177.84
2023-03-26T12:44:55.980Z,95166.09
2023-03-26T12:45:46.894Z,95173.59
2023-03-26T12:48:40.448Z,95173.34
2023-03-26T12:51:18.334Z,95195.69
2023-03-26T12:54:08.389Z,95180.72
2023-03-26T12:56:47.829Z,95191.81
2023-03-26T12:59:29.991Z,95176.78
2023-03-26T13:02:10.346Z,95172.50
2023-03-26T13:05:04.997Z,95161.31
2023-03-26T13:07:48.650Z,95157.44
2023-03-26T13:10:37.510Z,95167.44
2023-03-26T13:13:21.136Z,95149.38
2023-03-26T13:15:55.336Z,95149.00
2023-03-26T13:18:33.977Z,95140.19
2023-03-26T13:21:11.240Z,95134.81
2023-03-26T13:23:49.065Z,95134.44
2023-03-26T13:26:29.186Z,95119.84
2023-03-26T13:29:09.283Z,95121.00
2023-03-26T13:31:46.968Z,95113.31
2023-03-26T13:34:27.771Z,95116.00
2023-03-26T13:37:07.125Z,95097.22
2023-03-26T13:39:46.616Z,95084.91
2023-03-26T13:42:33.844Z,95081.47
2023-03-26T13:45:12.753Z,95063.44
2023-03-26T13:47:48.216Z,95054.59
2023-03-26T13:50:25.191Z,95054.97
2023-03-26T13:53:01.947Z,95042.69
2023-03-26T13:55:37.522Z,95038.44
2023-03-26T13:58:13.517Z,95036.13
2023-03-26T14:00:54.645Z,95036.91
2023-03-26T14:03:31.713Z,95047.25
2023-03-26T14:06:10.177Z,95041.50
2023-03-26T14:08:45.214Z,95041.50
2023-03-26T14:11:20.719Z,95044.59
2023-03-26T14:13:56.514Z,95059.94
2023-03-26T14:16:35.490Z,95050.31
2023-03-26T14:19:20.230Z,95056.50
2023-03-26T14:21:58.790Z,95053.06
2023-03-26T14:24:43.472Z,95063.81
2023-03-26T14:27:40.316Z,95074.59
2023-03-26T14:30:29.676Z,95093.03
2023-03-26T14:33:12.730Z,95092.59
2023-03-26T14:35:50.485Z,95109.09
2023-03-26T14:38:41.078Z,95102.94
2023-03-26T14:41:23.144Z,95126.69
2023-03-26T14:44:17.029Z,95185.41
2023-03-26T14:46:58.159Z,95224.47
2023-03-26T14:49:39.816Z,95235.94
2023-03-26T14:52:15.404Z,95250.00
2023-03-26T14:54:51.191Z,95257.84
2023-03-26T14:57:48.011Z,95280.59
2023-03-26T15:00:32.207Z,95295.56
2023-03-26T15:03:23.721Z,95282.94
2023-03-26T15:06:12.804Z,95243.03
2023-03-26T15:09:12.384Z,95241.13
2023-03-26T15:11:49.193Z,95260.56
2023-03-26T15:14:39.120Z,95261.38
2023-03-26T15:17:30.537Z,95255.66
2023-03-26T15:20:26.116Z,95263.00
2023-03-26T15:23:24.501Z,95275.75
2023-03-26T15:26:20.210Z,95275.19
2023-03-26T15:29:06.054Z,95269.34
2023-03-26T15:31:56.691Z,95268.88
2023-03-26T15:34:49.008Z,95285.69
2023-03-26T15:37:37.574Z,95279.47
2023-03-26T15:40:28.877Z,95276.38
2023-03-26T15:43:07.984Z,95271.41
2023-03-26T15:45:41.893Z,95277.88
2023-03-26T15:48:35.580Z,95261.50
2023-03-26T15:51:29.208Z,95261.13
2023-03-26T15:54:07.966Z,95272.22
2023-03-26T15:56:53.175Z,95279.56
2023-03-26T15:59:38.608Z,95284.19
2023-03-26T16:02:21.596Z,95295.31
2023-03-26T16:04:55.491Z,95289.59
2023-03-26T16:07:39.525Z,95298.84
2023-03-26T16:10:22.787Z,95296.16
2023-03-26T16:12:57.295Z,95321.78
2023-03-26T16:15:33.432Z,95364.91
2023-03-26T16:18:22.717Z,95432.44
2023-03-26T16:20:57.384Z,95414.69
2023-03-26T16:23:31.321Z,95425.84
2023-03-26T16:26:18.010Z,95424.31
2023-03-26T16:29:14.496Z,95429.94
2023-03-26T16:32:07.368Z,95429.00
2023-03-26T16:34:44.121Z,95443.00
2023-03-26T16:37:38.183Z,95409.75
2023-03-26T16:40:36.750Z,95384.84
2023-03-26T16:43:27.457Z,95342.44
2023-03-26T16:46:03.883Z,95283.31
2023-03-26T16:48:41.815Z,95301.28
2023-03-26T16:51:18.778Z,95313.53
2023-03-26T16:53:57.939Z,95312.91
2023-03-26T16:56:34.732Z,95310.72
2023-03-26T16:59:09.446Z,95321.16
2023-03-26T17:01:47.102Z,95317.97
2023-03-26T17:04:23.823Z,95324.63
2023-03-26T17:07:05.712Z,95312.00
2023-03-26T17:09:45.089Z,95309.91
2023-03-26T17:12:21.880Z,95313.25
2023-03-26T17:15:01.097Z,95301.38
2023-03-26T17:17:54.944Z,95308.16
2023-03-26T17:20:34.106Z,95306.94
2023-03-26T17:23:16.224Z,95302.28
2023-03-26T17:25:56.317Z,95299.63
2023-03-26T17:28:35.440Z,95300.28
2023-03-26T17:31:18.421Z,95293.31
2023-03-26T17:33:51.664Z,95296.22
2023-03-26T17:36:42.380Z,95296.75
2023-03-26T17:39:39.856Z,95306.88
2023-03-26T17:42:19.367Z,95314.63
2023-03-26T17:44:54.551Z,95310.19
2023-03-26T17:47:30.906Z,95317.19
2023-03-26T17:50:06.430Z,95315.06
2023-03-26T17:52:48.175Z,95306.84
2023-03-26T17:55:22.683Z,95306.97
2023-03-26T17:57:58.364Z,95319.34
2023-03-26T18:00:34.040Z,95324.09
2023-03-26T18:03:13.526Z,95325.09
2023-03-26T18:05:47.796Z,95325.41
2023-03-26T18:08:45.251Z,95318.53
2023-03-26T18:11:26.822Z,95316.03
2023-03-26T18:14:18.366Z,95310.78
2023-03-26T18:16:53.552Z,95305.94
2023-03-26T18:19:27.044Z,95310.72
2023-03-26T18:22:00.900Z,95309.41
2023-03-26T18:24:37.353Z,95310.75
2023-03-26T18:27:12.601Z,95312.84
2023-03-26T18:29:46.573Z,95322.50
2023-03-26T18:32:22.851Z,95312.09
2023-03-26T18:34:58.654Z,95316.41
2023-03-26T18:37:33.544Z,95319.94
2023-03-26T18:40:12.267Z,95312.06
2023-03-26T18:42:46.793Z,95303.88
2023-03-26T18:45:24.820Z,95304.75
2023-03-26T18:48:00.461Z,95296.53
2023-03-26T18:50:37.169Z,95300.41
2023-03-26T18:53:15.827Z,95289.09
2023-03-26T18:55:50.793Z,95294.53
2023-03-26T18:58:25.177Z,95294.63
2023-03-26T19:01:00.084Z,95292.84
2023-03-26T19:03:36.576Z,95282.19
2023-03-26T19:06:12.736Z,95269.66
2023-03-26T19:08:46.764Z,95268.56
2023-03-26T19:11:19.787Z,95276.09
2023-03-26T19:14:03.266Z,95274.44
2023-03-26T19:16:37.655Z,95270.91
2023-03-26T19:19:17.149Z,95274.22
2023-03-26T19:21:51.142Z,95265.38
2023-03-26T19:24:24.318Z,95271.03
2023-03-26T19:26:57.563Z,95257.28
2023-03-26T19:29:35.250Z,95263.38
2023-03-26T19:32:17.023Z,95264.94
2023-03-26T19:34:53.421Z,95256.16
2023-03-26T19:37:29.921Z,95254.41
2023-03-26T19:40:07.861Z,95252.50
2023-03-26T19:42:42.978Z,95249.94
2023-03-26T19:45:18.911Z,95258.03
2023-03-26T19:48:00.423Z,95253.13
2023-03-26T19:50:54.655Z,95249.81
2023-03-26T19:53:44.464Z,95245.38
2023-03-26T19:56:18.750Z,95255.31
2023-03-26T19:58:51.554Z,95253.09
2023-03-26T20:01:25.572Z,95250.13
2023-03-26T20:04:00.929Z,95254.78
2023-03-26T20:06:43.154Z,95253.63
2023-03-26T20:09:17.390Z,95235.78
2023-03-26T20:11:52.573Z,95243.00
2023-03-26T20:14:26.703Z,95246.78
2023-03-26T20:16:59.530Z,95250.56
2023-03-26T20:19:32.295Z,95250.78
2023-03-26T20:22:07.993Z,95248.44
2023-03-26T20:24:41.557Z,95240.03
2023-03-26T20:27:14.967Z,95239.16
2023-03-26T20:29:47.866Z,95238.38
2023-03-26T20:32:23.669Z,95237.59
2023-03-26T20:34:58.031Z,95251.25
2023-03-26T20:37:32.205Z,95255.78
2023-03-26T20:40:07.020Z,95268.44
2023-03-26T20:42:40.001Z,95268.88
2023-03-26T20:45:18.060Z,95272.78
2023-03-26T20:47:51.733Z,95277.41
2023-03-26T20:50:26.275Z,95274.84
2023-03-26T20:53:03.044Z,95286.72
2023-03-26T20:55:36.935Z,95267.06
2023-03-26T20:58:10.878Z,95251.19
2023-03-26T21:00:44.711Z,95258.16
2023-03-26T21:03:19.412Z,95261.25
2023-03-26T21:05:52.675Z,95264.38
2023-03-26T21:08:30.255Z,95260.22
2023-03-26T21:11:03.894Z,95257.56
2023-03-26T21:13:38.127Z,95253.03
2023-03-26T21:16:12.205Z,95259.47
2023-03-26T21:18:45.543Z,95250.69
2023-03-26T21:21:26.385Z,95244.59
2023-03-26T21:24:05.141Z,95247.63
2023-03-26T21:26:43.858Z,95253.72
2023-03-26T21:29:17.223Z,95260.16
2023-03-26T21:31:52.770Z,95272.38
2023-03-26T21:34:27.817Z,95281.47
2023-03-26T21:37:01.024Z,95284.13
2023-03-26T21:39:35.567Z,95278.81
2023-03-26T21:42:08.807Z,95293.69
2023-03-26T21:44:42.184Z,95303.56
2023-03-26T21:47:15.449Z,95303.19
2023-03-26T21:49:48.260Z,95304.31
2023-03-26T21:52:22.829Z,95302.84
2023-03-26T21:55:00.653Z,95295.63
2023-03-26T21:57:40.621Z,95297.97
2023-03-26T22:00:15.626Z,95289.66
2023-03-26T22:02:56.321Z,95293.88
2023-03-26T22:05:33.667Z,95296.97
2023-03-26T22:08:07.097Z,95299.63
2023-03-26T22:10:41.371Z,95304.28
2023-03-26T22:13:14.228Z,95313.47
2023-03-26T22:15:47.047Z,95311.25
2023-03-26T22:18:21.799Z,95305.16
2023-03-26T22:20:54.739Z,95299.13
2023-03-26T22:23:28.204Z,95303.69
2023-03-26T22:26:02.314Z,95303.69
2023-03-26T22:28:35.490Z,95310.56
2023-03-26T22:31:09.515Z,95314.72
2023-03-26T22:33:43.340Z,95320.81
2023-03-26T22:36:22.598Z,95320.03
2023-03-26T22:38:56.939Z,95321.16
2023-03-26T22:41:31.952Z,95329.47
2023-03-26T22:44:16.973Z,95325.25
2023-03-26T22:46:54.443Z,95331.34
2023-03-26T22:49:30.371Z,95334.88
2023-03-26T22:52:03.306Z,95327.34
2023-03-26T22:54:36.826Z,95338.00
2023-03-26T22:57:11.240Z,95342.97
2023-03-26T22:59:44.258Z,95335.88
2023-03-26T23:02:17.553Z,95340.84
2023-03-26T23:04:50.733Z,95342.41
2023-03-26T23:07:23.473Z,95338.63
2023-03-26T23:09:56.170Z,95338.63
2023-03-26T23:12:30.341Z,95345.97
2023-03-26T23:15:05.228Z,95342.19
2023-03-26T23:20:46.191Z,95354.81
2023-03-26T23:23:18.931Z,95348.69
2023-03-26T23:25:53.123Z,95360.91
2023-03-26T23:28:31.032Z,95360.59
2023-03-26T23:31:05.238Z,95357.59
2023-03-26T23:33:38.650Z,95362.91
2023-03-26T23:36:11.539Z,95359.47
2023-03-26T23:38:46.660Z,95355.69
2023-03-26T23:41:21.670Z,95360.25
2023-03-26T23:43:56.269Z,95364.34
2023-03-26T23:46:30.663Z,95366.16
2023-03-26T23:49:04.071Z,95368.38
2023-03-26T23:51:37.305Z,95358.72
2023-03-26T23:54:11.678Z,95370.84
2023-03-26T23:56:44.402Z,95373.41
2023-03-26T23:59:19.079Z,95371.06
